sensor_id;sensor_type;location;lat;lon;timestamp;temperature;humidity
57566;DHT22;63999;43.882;-0.310;2023-08-24T00:02:11;30.10;69.10
57566;DHT22;63999;43.882;-0.310;2023-08-24T00:04:38;30.10;69.10
57566;DHT22;63999;43.882;-0.310;2023-08-24T00:07:03;30.10;69.10
57566;DHT22;63999;43.882;-0.310;2023-08-24T00:09:29;30.10;69.20
57566;DHT22;63999;43.882;-0.310;2023-08-24T00:11:55;30.00;69.10
57566;DHT22;63999;43.882;-0.310;2023-08-24T00:14:21;30.00;69.20
57566;DHT22;63999;43.882;-0.310;2023-08-24T00:16:46;30.00;69.40
57566;DHT22;63999;43.882;-0.310;2023-08-24T00:19:12;30.00;69.50
57566;DHT22;63999;43.882;-0.310;2023-08-24T00:21:38;30.00;69.60
57566;DHT22;63999;43.882;-0.310;2023-08-24T00:24:04;30.00;69.60
57566;DHT22;63999;43.882;-0.310;2023-08-24T00:26:30;30.00;69.30
57566;DHT22;63999;43.882;-0.310;2023-08-24T00:28:56;30.00;69.50
57566;DHT22;63999;43.882;-0.310;2023-08-24T00:31:21;30.00;69.40
57566;DHT22;63999;43.882;-0.310;2023-08-24T00:33:47;30.00;69.20
57566;DHT22;63999;43.882;-0.310;2023-08-24T00:36:15;30.00;69.00
57566;DHT22;63999;43.882;-0.310;2023-08-24T00:38:43;29.90;69.10
57566;DHT22;63999;43.882;-0.310;2023-08-24T00:41:09;29.90;69.20
57566;DHT22;63999;43.882;-0.310;2023-08-24T00:43:34;29.90;69.30
57566;DHT22;63999;43.882;-0.310;2023-08-24T00:46:02;29.90;69.30
57566;DHT22;63999;43.882;-0.310;2023-08-24T00:48:29;29.90;69.30
57566;DHT22;63999;43.882;-0.310;2023-08-24T00:51:00;29.80;69.20
57566;DHT22;63999;43.882;-0.310;2023-08-24T00:53:27;29.70;69.40
57566;DHT22;63999;43.882;-0.310;2023-08-24T00:55:53;29.70;69.40
57566;DHT22;63999;43.882;-0.310;2023-08-24T00:58:20;29.70;69.30
57566;DHT22;63999;43.882;-0.310;2023-08-24T01:00:46;29.70;69.40
57566;DHT22;63999;43.882;-0.310;2023-08-24T01:03:12;29.70;69.20
57566;DHT22;63999;43.882;-0.310;2023-08-24T01:05:38;29.70;69.30
57566;DHT22;63999;43.882;-0.310;2023-08-24T01:08:04;29.60;69.50
57566;DHT22;63999;43.882;-0.310;2023-08-24T01:10:39;29.60;69.40
57566;DHT22;63999;43.882;-0.310;2023-08-24T01:13:10;29.60;69.50
57566;DHT22;63999;43.882;-0.310;2023-08-24T01:18:29;29.50;69.40
57566;DHT22;63999;43.882;-0.310;2023-08-24T01:20:56;29.50;69.40
57566;DHT22;63999;43.882;-0.310;2023-08-24T01:26:36;29.50;69.70
57566;DHT22;63999;43.882;-0.310;2023-08-24T01:29:04;29.50;69.50
57566;DHT22;63999;43.882;-0.310;2023-08-24T01:31:30;29.50;69.60
57566;DHT22;63999;43.882;-0.310;2023-08-24T01:33:55;29.40;69.60
57566;DHT22;63999;43.882;-0.310;2023-08-24T01:36:21;29.40;69.60
57566;DHT22;63999;43.882;-0.310;2023-08-24T01:39:02;29.40;69.70
57566;DHT22;63999;43.882;-0.310;2023-08-24T01:41:36;29.40;69.60
57566;DHT22;63999;43.882;-0.310;2023-08-24T01:44:09;29.40;69.70
57566;DHT22;63999;43.882;-0.310;2023-08-24T01:46:38;29.40;69.70
57566;DHT22;63999;43.882;-0.310;2023-08-24T01:49:06;29.30;69.70
57566;DHT22;63999;43.882;-0.310;2023-08-24T01:51:33;29.30;69.70
57566;DHT22;63999;43.882;-0.310;2023-08-24T01:54:00;29.30;69.70
57566;DHT22;63999;43.882;-0.310;2023-08-24T01:56:26;29.30;69.80
57566;DHT22;63999;43.882;-0.310;2023-08-24T01:58:52;29.30;69.70
57566;DHT22;63999;43.882;-0.310;2023-08-24T02:01:18;29.30;69.60
57566;DHT22;63999;43.882;-0.310;2023-08-24T02:03:43;29.20;69.70
57566;DHT22;63999;43.882;-0.310;2023-08-24T02:06:09;29.20;69.60
57566;DHT22;63999;43.882;-0.310;2023-08-24T02:08:35;29.20;69.80
57566;DHT22;63999;43.882;-0.310;2023-08-24T02:11:01;29.20;69.70
57566;DHT22;63999;43.882;-0.310;2023-08-24T02:13:27;29.20;69.80
57566;DHT22;63999;43.882;-0.310;2023-08-24T02:16:03;29.10;69.90
57566;DHT22;63999;43.882;-0.310;2023-08-24T02:18:29;29.10;69.80
57566;DHT22;63999;43.882;-0.310;2023-08-24T02:20:54;29.10;69.80
57566;DHT22;63999;43.882;-0.310;2023-08-24T02:23:20;29.10;69.80
57566;DHT22;63999;43.882;-0.310;2023-08-24T02:25:46;29.10;69.80
57566;DHT22;63999;43.882;-0.310;2023-08-24T02:28:11;29.10;69.90
57566;DHT22;63999;43.882;-0.310;2023-08-24T02:30:38;29.00;69.80
57566;DHT22;63999;43.882;-0.310;2023-08-24T02:33:04;29.00;69.90
57566;DHT22;63999;43.882;-0.310;2023-08-24T02:35:30;29.00;69.90
57566;DHT22;63999;43.882;-0.310;2023-08-24T02:37:59;29.00;70.00
57566;DHT22;63999;43.882;-0.310;2023-08-24T02:40:25;29.00;70.20
57566;DHT22;63999;43.882;-0.310;2023-08-24T02:42:50;29.00;70.10
57566;DHT22;63999;43.882;-0.310;2023-08-24T02:45:16;29.00;70.10
57566;DHT22;63999;43.882;-0.310;2023-08-24T02:47:42;29.00;70.10
57566;DHT22;63999;43.882;-0.310;2023-08-24T02:50:08;28.90;69.90
57566;DHT22;63999;43.882;-0.310;2023-08-24T02:52:34;28.90;69.90
57566;DHT22;63999;43.882;-0.310;2023-08-24T02:55:00;28.90;70.10
57566;DHT22;63999;43.882;-0.310;2023-08-24T02:57:25;28.80;70.10
57566;DHT22;63999;43.882;-0.310;2023-08-24T02:59:51;28.80;70.20
57566;DHT22;63999;43.882;-0.310;2023-08-24T03:02:17;28.70;70.10
57566;DHT22;63999;43.882;-0.310;2023-08-24T03:04:42;28.70;70.30
57566;DHT22;63999;43.882;-0.310;2023-08-24T03:07:08;28.70;70.40
57566;DHT22;63999;43.882;-0.310;2023-08-24T03:09:36;28.70;70.30
57566;DHT22;63999;43.882;-0.310;2023-08-24T03:12:02;28.70;70.50
57566;DHT22;63999;43.882;-0.310;2023-08-24T03:14:28;28.70;70.40
57566;DHT22;63999;43.882;-0.310;2023-08-24T03:16:54;28.70;70.20
57566;DHT22;63999;43.882;-0.310;2023-08-24T03:19:20;28.70;70.10
57566;DHT22;63999;43.882;-0.310;2023-08-24T03:21:45;28.70;70.00
57566;DHT22;63999;43.882;-0.310;2023-08-24T03:24:11;28.70;70.10
57566;DHT22;63999;43.882;-0.310;2023-08-24T03:26:37;28.70;70.00
57566;DHT22;63999;43.882;-0.310;2023-08-24T03:29:02;28.60;70.10
57566;DHT22;63999;43.882;-0.310;2023-08-24T03:31:28;28.60;70.10
57566;DHT22;63999;43.882;-0.310;2023-08-24T03:33:54;28.60;70.00
57566;DHT22;63999;43.882;-0.310;2023-08-24T03:36:20;28.60;70.00
57566;DHT22;63999;43.882;-0.310;2023-08-24T03:38:46;28.60;70.00
57566;DHT22;63999;43.882;-0.310;2023-08-24T03:41:12;28.50;70.10
57566;DHT22;63999;43.882;-0.310;2023-08-24T03:43:38;28.50;70.00
57566;DHT22;63999;43.882;-0.310;2023-08-24T03:46:04;28.50;70.10
57566;DHT22;63999;43.882;-0.310;2023-08-24T03:48:31;28.50;70.00
57566;DHT22;63999;43.882;-0.310;2023-08-24T03:50:57;28.50;70.00
57566;DHT22;63999;43.882;-0.310;2023-08-24T03:53:24;28.50;70.10
57566;DHT22;63999;43.882;-0.310;2023-08-24T03:55:51;28.40;70.10
57566;DHT22;63999;43.882;-0.310;2023-08-24T03:58:17;28.40;70.10
57566;DHT22;63999;43.882;-0.310;2023-08-24T04:00:46;28.30;70.10
57566;DHT22;63999;43.882;-0.310;2023-08-24T04:03:12;28.30;70.20
57566;DHT22;63999;43.882;-0.310;2023-08-24T04:05:38;28.30;70.10
57566;DHT22;63999;43.882;-0.310;2023-08-24T04:08:04;28.30;70.10
57566;DHT22;63999;43.882;-0.310;2023-08-24T04:10:30;28.30;70.20
57566;DHT22;63999;43.882;-0.310;2023-08-24T04:12:56;28.20;70.20
57566;DHT22;63999;43.882;-0.310;2023-08-24T04:15:22;28.10;70.30
57566;DHT22;63999;43.882;-0.310;2023-08-24T04:17:48;28.10;70.40
57566;DHT22;63999;43.882;-0.310;2023-08-24T04:20:14;28.10;70.40
57566;DHT22;63999;43.882;-0.310;2023-08-24T04:22:41;28.10;70.30
57566;DHT22;63999;43.882;-0.310;2023-08-24T04:25:07;28.10;70.30
57566;DHT22;63999;43.882;-0.310;2023-08-24T04:27:33;28.10;70.40
57566;DHT22;63999;43.882;-0.310;2023-08-24T04:29:59;28.10;70.30
57566;DHT22;63999;43.882;-0.310;2023-08-24T04:32:26;28.10;70.30
57566;DHT22;63999;43.882;-0.310;2023-08-24T04:34:53;28.10;70.30
57566;DHT22;63999;43.882;-0.310;2023-08-24T04:37:19;28.10;70.20
57566;DHT22;63999;43.882;-0.310;2023-08-24T04:39:44;28.10;70.40
57566;DHT22;63999;43.882;-0.310;2023-08-24T04:42:10;28.10;70.40
57566;DHT22;63999;43.882;-0.310;2023-08-24T04:44:36;28.10;70.40
57566;DHT22;63999;43.882;-0.310;2023-08-24T04:47:01;28.10;70.30
57566;DHT22;63999;43.882;-0.310;2023-08-24T04:49:27;28.10;70.30
57566;DHT22;63999;43.882;-0.310;2023-08-24T04:51:54;28.10;70.10
57566;DHT22;63999;43.882;-0.310;2023-08-24T04:54:20;28.00;70.30
57566;DHT22;63999;43.882;-0.310;2023-08-24T04:56:48;28.00;70.20
57566;DHT22;63999;43.882;-0.310;2023-08-24T04:59:16;27.90;70.30
57566;DHT22;63999;43.882;-0.310;2023-08-24T05:01:42;27.90;70.30
57566;DHT22;63999;43.882;-0.310;2023-08-24T05:04:08;27.90;70.40
57566;DHT22;63999;43.882;-0.310;2023-08-24T05:06:36;27.90;70.30
57566;DHT22;63999;43.882;-0.310;2023-08-24T05:09:04;27.90;70.50
57566;DHT22;63999;43.882;-0.310;2023-08-24T05:11:30;27.90;70.40
57566;DHT22;63999;43.882;-0.310;2023-08-24T05:13:56;27.90;70.20
57566;DHT22;63999;43.882;-0.310;2023-08-24T05:16:22;27.90;70.20
57566;DHT22;63999;43.882;-0.310;2023-08-24T05:18:48;27.80;70.40
57566;DHT22;63999;43.882;-0.310;2023-08-24T05:21:13;27.80;70.30
57566;DHT22;63999;43.882;-0.310;2023-08-24T05:23:39;27.80;70.30
57566;DHT22;63999;43.882;-0.310;2023-08-24T05:26:07;27.80;70.30
57566;DHT22;63999;43.882;-0.310;2023-08-24T05:28:33;27.80;70.20
57566;DHT22;63999;43.882;-0.310;2023-08-24T05:31:01;27.80;70.20
57566;DHT22;63999;43.882;-0.310;2023-08-24T05:33:27;27.70;70.30
57566;DHT22;63999;43.882;-0.310;2023-08-24T05:35:58;27.70;70.40
57566;DHT22;63999;43.882;-0.310;2023-08-24T05:38:29;27.70;70.20
57566;DHT22;63999;43.882;-0.310;2023-08-24T05:40:54;27.70;70.30
57566;DHT22;63999;43.882;-0.310;2023-08-24T05:43:23;27.80;70.50
57566;DHT22;63999;43.882;-0.310;2023-08-24T05:45:49;27.70;70.20
57566;DHT22;63999;43.882;-0.310;2023-08-24T05:48:17;27.80;70.20
57566;DHT22;63999;43.882;-0.310;2023-08-24T05:50:44;27.70;70.20
57566;DHT22;63999;43.882;-0.310;2023-08-24T05:53:10;27.70;70.30
57566;DHT22;63999;43.882;-0.310;2023-08-24T05:55:38;27.60;70.40
57566;DHT22;63999;43.882;-0.310;2023-08-24T05:58:07;27.50;70.50
57566;DHT22;63999;43.882;-0.310;2023-08-24T06:00:33;27.60;70.60
57566;DHT22;63999;43.882;-0.310;2023-08-24T06:03:04;27.60;70.70
57566;DHT22;63999;43.882;-0.310;2023-08-24T06:05:30;27.60;70.70
57566;DHT22;63999;43.882;-0.310;2023-08-24T06:07:56;27.60;70.50
57566;DHT22;63999;43.882;-0.310;2023-08-24T06:10:22;27.50;70.70
57566;DHT22;63999;43.882;-0.310;2023-08-24T06:12:50;27.60;70.70
57566;DHT22;63999;43.882;-0.310;2023-08-24T06:15:19;27.60;70.70
57566;DHT22;63999;43.882;-0.310;2023-08-24T06:17:46;27.60;70.60
57566;DHT22;63999;43.882;-0.310;2023-08-24T06:20:16;27.60;70.70
57566;DHT22;63999;43.882;-0.310;2023-08-24T06:22:41;27.60;70.80
57566;DHT22;63999;43.882;-0.310;2023-08-24T06:25:10;27.60;70.80
57566;DHT22;63999;43.882;-0.310;2023-08-24T06:27:36;27.70;70.70
57566;DHT22;63999;43.882;-0.310;2023-08-24T06:30:03;27.70;70.70
57566;DHT22;63999;43.882;-0.310;2023-08-24T06:32:29;27.60;70.70
57566;DHT22;63999;43.882;-0.310;2023-08-24T06:34:54;27.70;70.80
57566;DHT22;63999;43.882;-0.310;2023-08-24T06:37:23;27.70;70.70
57566;DHT22;63999;43.882;-0.310;2023-08-24T06:39:54;27.70;70.90
57566;DHT22;63999;43.882;-0.310;2023-08-24T06:42:22;27.70;70.60
57566;DHT22;63999;43.882;-0.310;2023-08-24T06:44:48;27.70;70.60
57566;DHT22;63999;43.882;-0.310;2023-08-24T06:47:19;27.70;70.70
57566;DHT22;63999;43.882;-0.310;2023-08-24T06:49:45;27.70;71.00
57566;DHT22;63999;43.882;-0.310;2023-08-24T06:52:10;27.70;70.90
57566;DHT22;63999;43.882;-0.310;2023-08-24T06:54:36;27.70;70.50
57566;DHT22;63999;43.882;-0.310;2023-08-24T06:57:05;27.70;70.50
57566;DHT22;63999;43.882;-0.310;2023-08-24T06:59:31;27.70;71.20
57566;DHT22;63999;43.882;-0.310;2023-08-24T07:02:08;27.70;70.90
57566;DHT22;63999;43.882;-0.310;2023-08-24T07:04:36;27.80;71.60
57566;DHT22;63999;43.882;-0.310;2023-08-24T07:07:06;27.80;71.90
57566;DHT22;63999;43.882;-0.310;2023-08-24T07:09:32;27.90;71.90
57566;DHT22;63999;43.882;-0.310;2023-08-24T07:12:02;28.00;71.40
57566;DHT22;63999;43.882;-0.310;2023-08-24T07:14:29;27.90;70.90
57566;DHT22;63999;43.882;-0.310;2023-08-24T07:16:54;27.90;70.80
57566;DHT22;63999;43.882;-0.310;2023-08-24T07:19:23;27.90;70.80
57566;DHT22;63999;43.882;-0.310;2023-08-24T07:21:51;27.90;70.90
57566;DHT22;63999;43.882;-0.310;2023-08-24T07:24:19;28.00;70.90
57566;DHT22;63999;43.882;-0.310;2023-08-24T07:26:48;28.00;70.80
57566;DHT22;63999;43.882;-0.310;2023-08-24T07:29:14;28.00;71.10
57566;DHT22;63999;43.882;-0.310;2023-08-24T07:31:45;28.10;71.30
57566;DHT22;63999;43.882;-0.310;2023-08-24T07:34:14;28.10;71.00
57566;DHT22;63999;43.882;-0.310;2023-08-24T07:36:44;28.10;70.70
57566;DHT22;63999;43.882;-0.310;2023-08-24T07:39:12;28.20;70.90
57566;DHT22;63999;43.882;-0.310;2023-08-24T07:41:38;28.30;71.50
57566;DHT22;63999;43.882;-0.310;2023-08-24T07:44:04;28.30;71.10
57566;DHT22;63999;43.882;-0.310;2023-08-24T07:46:32;28.30;70.70
57566;DHT22;63999;43.882;-0.310;2023-08-24T07:48:58;28.30;72.40
57566;DHT22;63999;43.882;-0.310;2023-08-24T07:51:26;28.40;72.50
57566;DHT22;63999;43.882;-0.310;2023-08-24T07:53:53;28.40;72.30
57566;DHT22;63999;43.882;-0.310;2023-08-24T07:56:20;28.50;73.10
57566;DHT22;63999;43.882;-0.310;2023-08-24T07:58:48;28.50;72.70
57566;DHT22;63999;43.882;-0.310;2023-08-24T08:01:14;28.50;72.50
57566;DHT22;63999;43.882;-0.310;2023-08-24T08:03:44;28.50;72.10
57566;DHT22;63999;43.882;-0.310;2023-08-24T08:06:14;28.60;73.30
57566;DHT22;63999;43.882;-0.310;2023-08-24T08:08:42;28.60;73.00
57566;DHT22;63999;43.882;-0.310;2023-08-24T08:11:13;28.60;72.20
57566;DHT22;63999;43.882;-0.310;2023-08-24T08:13:40;28.60;71.60
57566;DHT22;63999;43.882;-0.310;2023-08-24T08:16:09;28.60;72.50
57566;DHT22;63999;43.882;-0.310;2023-08-24T08:18:38;28.60;72.00
57566;DHT22;63999;43.882;-0.310;2023-08-24T08:21:14;28.60;72.50
57566;DHT22;63999;43.882;-0.310;2023-08-24T08:23:42;28.70;71.40
57566;DHT22;63999;43.882;-0.310;2023-08-24T08:26:13;28.80;71.60
57566;DHT22;63999;43.882;-0.310;2023-08-24T08:28:47;28.90;71.20
57566;DHT22;63999;43.882;-0.310;2023-08-24T08:31:15;28.90;71.00
57566;DHT22;63999;43.882;-0.310;2023-08-24T08:33:41;28.90;72.20
57566;DHT22;63999;43.882;-0.310;2023-08-24T08:36:09;29.00;72.20
57566;DHT22;63999;43.882;-0.310;2023-08-24T08:38:37;29.00;72.50
57566;DHT22;63999;43.882;-0.310;2023-08-24T08:41:06;29.10;72.70
57566;DHT22;63999;43.882;-0.310;2023-08-24T08:43:35;29.10;72.20
57566;DHT22;63999;43.882;-0.310;2023-08-24T08:46:06;29.20;72.40
57566;DHT22;63999;43.882;-0.310;2023-08-24T08:48:40;29.30;72.20
57566;DHT22;63999;43.882;-0.310;2023-08-24T08:51:14;29.30;71.80
57566;DHT22;63999;43.882;-0.310;2023-08-24T08:53:44;29.30;72.60
57566;DHT22;63999;43.882;-0.310;2023-08-24T08:56:10;29.40;72.60
57566;DHT22;63999;43.882;-0.310;2023-08-24T08:58:39;29.40;72.30
57566;DHT22;63999;43.882;-0.310;2023-08-24T09:01:09;29.30;71.80
57566;DHT22;63999;43.882;-0.310;2023-08-24T09:03:39;29.30;72.50
57566;DHT22;63999;43.882;-0.310;2023-08-24T09:06:09;29.30;72.30
57566;DHT22;63999;43.882;-0.310;2023-08-24T09:08:35;29.40;72.10
57566;DHT22;63999;43.882;-0.310;2023-08-24T09:11:00;29.40;72.70
57566;DHT22;63999;43.882;-0.310;2023-08-24T09:13:38;29.40;72.80
57566;DHT22;63999;43.882;-0.310;2023-08-24T09:16:13;29.40;72.80
57566;DHT22;63999;43.882;-0.310;2023-08-24T09:18:46;29.40;72.80
57566;DHT22;63999;43.882;-0.310;2023-08-24T09:21:20;29.50;72.50
57566;DHT22;63999;43.882;-0.310;2023-08-24T09:23:55;29.50;72.60
57566;DHT22;63999;43.882;-0.310;2023-08-24T09:26:36;29.50;72.50
57566;DHT22;63999;43.882;-0.310;2023-08-24T09:29:17;29.50;72.70
57566;DHT22;63999;43.882;-0.310;2023-08-24T09:31:53;29.50;72.20
57566;DHT22;63999;43.882;-0.310;2023-08-24T09:34:25;29.70;72.60
57566;DHT22;63999;43.882;-0.310;2023-08-24T09:36:54;29.70;72.20
57566;DHT22;63999;43.882;-0.310;2023-08-24T09:39:29;29.70;72.10
57566;DHT22;63999;43.882;-0.310;2023-08-24T09:41:59;29.70;72.50
57566;DHT22;63999;43.882;-0.310;2023-08-24T09:44:36;29.70;72.70
57566;DHT22;63999;43.882;-0.310;2023-08-24T09:47:10;29.70;72.90
57566;DHT22;63999;43.882;-0.310;2023-08-24T09:49:47;29.70;72.80
57566;DHT22;63999;43.882;-0.310;2023-08-24T09:52:20;29.70;73.00
57566;DHT22;63999;43.882;-0.310;2023-08-24T09:54:46;29.70;73.30
57566;DHT22;63999;43.882;-0.310;2023-08-24T09:57:26;29.70;72.60
57566;DHT22;63999;43.882;-0.310;2023-08-24T09:59:54;29.70;73.00
57566;DHT22;63999;43.882;-0.310;2023-08-24T10:02:26;29.70;73.30
57566;DHT22;63999;43.882;-0.310;2023-08-24T10:04:57;29.70;73.40
57566;DHT22;63999;43.882;-0.310;2023-08-24T10:07:31;29.70;73.40
57566;DHT22;63999;43.882;-0.310;2023-08-24T10:10:00;29.70;73.30
57566;DHT22;63999;43.882;-0.310;2023-08-24T10:12:37;29.70;73.30
57566;DHT22;63999;43.882;-0.310;2023-08-24T10:15:09;29.70;73.60
57566;DHT22;63999;43.882;-0.310;2023-08-24T10:17:42;29.70;73.40
57566;DHT22;63999;43.882;-0.310;2023-08-24T10:20:11;29.70;73.40
57566;DHT22;63999;43.882;-0.310;2023-08-24T10:22:40;29.70;73.70
57566;DHT22;63999;43.882;-0.310;2023-08-24T10:25:08;29.70;73.50
57566;DHT22;63999;43.882;-0.310;2023-08-24T10:27:42;29.70;73.30
57566;DHT22;63999;43.882;-0.310;2023-08-24T10:30:12;29.70;73.50
57566;DHT22;63999;43.882;-0.310;2023-08-24T10:32:42;29.70;73.60
57566;DHT22;63999;43.882;-0.310;2023-08-24T10:35:08;29.90;73.20
57566;DHT22;63999;43.882;-0.310;2023-08-24T10:37:40;29.90;73.20
57566;DHT22;63999;43.882;-0.310;2023-08-24T10:40:11;30.00;73.20
57566;DHT22;63999;43.882;-0.310;2023-08-24T10:42:48;30.00;73.20
57566;DHT22;63999;43.882;-0.310;2023-08-24T10:45:25;30.00;73.20
57566;DHT22;63999;43.882;-0.310;2023-08-24T10:47:55;30.00;73.20
57566;DHT22;63999;43.882;-0.310;2023-08-24T10:50:24;30.00;73.50
57566;DHT22;63999;43.882;-0.310;2023-08-24T10:52:49;30.00;73.00
57566;DHT22;63999;43.882;-0.310;2023-08-24T10:55:26;30.10;72.10
57566;DHT22;63999;43.882;-0.310;2023-08-24T10:58:01;30.20;72.50
57566;DHT22;63999;43.882;-0.310;2023-08-24T11:00:32;30.10;72.70
57566;DHT22;63999;43.882;-0.310;2023-08-24T11:03:04;30.10;72.70
57566;DHT22;63999;43.882;-0.310;2023-08-24T11:05:32;30.00;73.10
57566;DHT22;63999;43.882;-0.310;2023-08-24T11:08:05;30.00;73.40
57566;DHT22;63999;43.882;-0.310;2023-08-24T11:13:14;30.20;72.90
57566;DHT22;63999;43.882;-0.310;2023-08-24T11:15:51;30.30;73.00
57566;DHT22;63999;43.882;-0.310;2023-08-24T11:18:22;30.30;73.10
57566;DHT22;63999;43.882;-0.310;2023-08-24T11:21:00;30.30;72.50
57566;DHT22;63999;43.882;-0.310;2023-08-24T11:23:32;30.30;72.90
57566;DHT22;63999;43.882;-0.310;2023-08-24T11:26:01;30.30;73.00
57566;DHT22;63999;43.882;-0.310;2023-08-24T11:28:34;30.30;72.90
57566;DHT22;63999;43.882;-0.310;2023-08-24T11:31:03;30.30;72.70
57566;DHT22;63999;43.882;-0.310;2023-08-24T11:33:34;30.50;72.40
57566;DHT22;63999;43.882;-0.310;2023-08-24T11:36:04;30.50;72.10
57566;DHT22;63999;43.882;-0.310;2023-08-24T11:38:40;30.60;71.70
57566;DHT22;63999;43.882;-0.310;2023-08-24T11:41:18;30.50;72.20
57566;DHT22;63999;43.882;-0.310;2023-08-24T11:43:49;30.60;72.30
57566;DHT22;63999;43.882;-0.310;2023-08-24T11:46:21;30.60;72.40
57566;DHT22;63999;43.882;-0.310;2023-08-24T11:48:51;30.50;72.00
57566;DHT22;63999;43.882;-0.310;2023-08-24T11:51:22;30.50;71.60
57566;DHT22;63999;43.882;-0.310;2023-08-24T11:53:53;30.50;71.70
57566;DHT22;63999;43.882;-0.310;2023-08-24T11:56:21;30.50;71.90
57566;DHT22;63999;43.882;-0.310;2023-08-24T11:58:51;30.50;71.70
57566;DHT22;63999;43.882;-0.310;2023-08-24T12:01:20;30.50;72.00
57566;DHT22;63999;43.882;-0.310;2023-08-24T12:03:52;30.30;71.50
57566;DHT22;63999;43.882;-0.310;2023-08-24T12:06:21;30.30;72.10
57566;DHT22;63999;43.882;-0.310;2023-08-24T12:08:49;30.30;72.70
57566;DHT22;63999;43.882;-0.310;2023-08-24T12:11:21;30.50;73.20
57566;DHT22;63999;43.882;-0.310;2023-08-24T12:13:58;30.30;71.80
57566;DHT22;63999;43.882;-0.310;2023-08-24T12:16:31;30.50;72.80
57566;DHT22;63999;43.882;-0.310;2023-08-24T12:19:00;30.50;71.50
57566;DHT22;63999;43.882;-0.310;2023-08-24T12:21:35;30.60;73.40
57566;DHT22;63999;43.882;-0.310;2023-08-24T12:24:06;30.60;71.40
57566;DHT22;63999;43.882;-0.310;2023-08-24T12:26:37;30.60;70.80
57566;DHT22;63999;43.882;-0.310;2023-08-24T12:29:08;30.70;71.60
57566;DHT22;63999;43.882;-0.310;2023-08-24T12:31:41;30.80;70.80
57566;DHT22;63999;43.882;-0.310;2023-08-24T12:34:10;30.80;71.10
57566;DHT22;63999;43.882;-0.310;2023-08-24T12:36:39;30.70;70.90
57566;DHT22;63999;43.882;-0.310;2023-08-24T12:39:07;30.80;72.30
57566;DHT22;63999;43.882;-0.310;2023-08-24T12:41:36;30.80;72.60
57566;DHT22;63999;43.882;-0.310;2023-08-24T12:44:05;30.80;71.60
57566;DHT22;63999;43.882;-0.310;2023-08-24T12:46:34;30.80;70.90
57566;DHT22;63999;43.882;-0.310;2023-08-24T12:49:03;30.70;70.00
57566;DHT22;63999;43.882;-0.310;2023-08-24T12:51:37;30.60;71.40
57566;DHT22;63999;43.882;-0.310;2023-08-24T12:54:09;30.70;70.90
57566;DHT22;63999;43.882;-0.310;2023-08-24T12:56:39;30.60;74.30
57566;DHT22;63999;43.882;-0.310;2023-08-24T12:59:09;30.70;71.40
57566;DHT22;63999;43.882;-0.310;2023-08-24T13:01:40;30.70;71.00
57566;DHT22;63999;43.882;-0.310;2023-08-24T13:04:11;30.70;71.60
57566;DHT22;63999;43.882;-0.310;2023-08-24T13:06:45;30.80;71.30
57566;DHT22;63999;43.882;-0.310;2023-08-24T13:09:13;30.70;71.00
57566;DHT22;63999;43.882;-0.310;2023-08-24T13:11:41;30.60;73.10
57566;DHT22;63999;43.882;-0.310;2023-08-24T13:14:15;30.70;70.70
57566;DHT22;63999;43.882;-0.310;2023-08-24T13:16:43;30.60;71.10
57566;DHT22;63999;43.882;-0.310;2023-08-24T13:19:14;30.80;70.90
57566;DHT22;63999;43.882;-0.310;2023-08-24T13:21:42;30.80;71.30
57566;DHT22;63999;43.882;-0.310;2023-08-24T13:24:22;30.90;70.90
57566;DHT22;63999;43.882;-0.310;2023-08-24T13:26:50;30.90;71.00
57566;DHT22;63999;43.882;-0.310;2023-08-24T13:29:22;30.90;70.50
57566;DHT22;63999;43.882;-0.310;2023-08-24T13:31:50;30.80;70.10
57566;DHT22;63999;43.882;-0.310;2023-08-24T13:34:16;30.80;70.30
57566;DHT22;63999;43.882;-0.310;2023-08-24T13:36:48;30.80;70.70
57566;DHT22;63999;43.882;-0.310;2023-08-24T13:39:19;30.90;71.00
57566;DHT22;63999;43.882;-0.310;2023-08-24T13:41:48;30.90;70.10
57566;DHT22;63999;43.882;-0.310;2023-08-24T13:44:20;30.90;70.70
57566;DHT22;63999;43.882;-0.310;2023-08-24T13:46:48;30.80;70.50
57566;DHT22;63999;43.882;-0.310;2023-08-24T13:49:20;30.80;70.40
57566;DHT22;63999;43.882;-0.310;2023-08-24T13:51:46;31.00;71.20
57566;DHT22;63999;43.882;-0.310;2023-08-24T13:54:19;31.10;70.20
57566;DHT22;63999;43.882;-0.310;2023-08-24T13:56:49;31.00;70.10
57566;DHT22;63999;43.882;-0.310;2023-08-24T13:59:22;31.10;70.30
57566;DHT22;63999;43.882;-0.310;2023-08-24T14:01:53;31.10;70.50
57566;DHT22;63999;43.882;-0.310;2023-08-24T14:04:21;31.10;70.50
57566;DHT22;63999;43.882;-0.310;2023-08-24T14:06:50;31.20;71.00
57566;DHT22;63999;43.882;-0.310;2023-08-24T14:09:19;31.20;70.90
57566;DHT22;63999;43.882;-0.310;2023-08-24T14:11:53;31.40;72.20
57566;DHT22;63999;43.882;-0.310;2023-08-24T14:14:24;31.50;72.90
57566;DHT22;63999;43.882;-0.310;2023-08-24T14:17:01;31.50;70.90
57566;DHT22;63999;43.882;-0.310;2023-08-24T14:19:30;31.50;71.20
57566;DHT22;63999;43.882;-0.310;2023-08-24T14:21:58;31.50;70.50
57566;DHT22;63999;43.882;-0.310;2023-08-24T14:24:29;31.50;69.40
57566;DHT22;63999;43.882;-0.310;2023-08-24T14:26:55;31.50;70.20
57566;DHT22;63999;43.882;-0.310;2023-08-24T14:29:25;31.50;70.40
57566;DHT22;63999;43.882;-0.310;2023-08-24T14:31:59;31.50;70.50
57566;DHT22;63999;43.882;-0.310;2023-08-24T14:34:28;31.50;72.70
57566;DHT22;63999;43.882;-0.310;2023-08-24T14:36:57;31.50;69.80
57566;DHT22;63999;43.882;-0.310;2023-08-24T14:39:28;31.50;69.70
57566;DHT22;63999;43.882;-0.310;2023-08-24T14:42:00;31.70;72.50
57566;DHT22;63999;43.882;-0.310;2023-08-24T14:44:32;31.70;70.70
57566;DHT22;63999;43.882;-0.310;2023-08-24T14:47:04;31.70;70.20
57566;DHT22;63999;43.882;-0.310;2023-08-24T14:49:35;31.70;71.00
57566;DHT22;63999;43.882;-0.310;2023-08-24T14:52:15;31.70;69.50
57566;DHT22;63999;43.882;-0.310;2023-08-24T14:54:41;31.70;69.90
57566;DHT22;63999;43.882;-0.310;2023-08-24T14:57:12;31.80;72.50
57566;DHT22;63999;43.882;-0.310;2023-08-24T14:59:40;31.90;70.50
57566;DHT22;63999;43.882;-0.310;2023-08-24T15:02:08;31.70;72.10
57566;DHT22;63999;43.882;-0.310;2023-08-24T15:04:44;31.70;69.20
57566;DHT22;63999;43.882;-0.310;2023-08-24T15:07:11;31.80;71.20
57566;DHT22;63999;43.882;-0.310;2023-08-24T15:09:44;31.90;70.30
57566;DHT22;63999;43.882;-0.310;2023-08-24T15:12:13;31.90;69.40
57566;DHT22;63999;43.882;-0.310;2023-08-24T15:14:59;31.80;71.90
57566;DHT22;63999;43.882;-0.310;2023-08-24T15:17:26;31.90;71.00
57566;DHT22;63999;43.882;-0.310;2023-08-24T15:19:55;32.10;70.40
57566;DHT22;63999;43.882;-0.310;2023-08-24T15:22:27;32.10;71.30
57566;DHT22;63999;43.882;-0.310;2023-08-24T15:24:54;32.20;73.10
57566;DHT22;63999;43.882;-0.310;2023-08-24T15:27:24;32.20;70.70
57566;DHT22;63999;43.882;-0.310;2023-08-24T15:29:55;32.30;70.60
57566;DHT22;63999;43.882;-0.310;2023-08-24T15:32:21;32.20;70.70
57566;DHT22;63999;43.882;-0.310;2023-08-24T15:34:54;32.20;72.20